Time;durP1;ratioP1;P1;durP2;ratioP2;P2;SDS_P1;SDS_P2;PMS_P1;PMS_P2;Temp;Humidity;BMP_temperature;BMP_pressure;BME280_temperature;BME280_humidity;BME280_pressure;Samples;Min_cycle;Max_cycle;Signal;HPM_P1;HPM_P2
2022/06/06 00:02:23;;;;;;;19.00;17.20;;;23.30;99.90;;;;;;5094624;28;20478;-63
2022/06/06 00:04:50;;;;;;;17.63;16.00;;;23.30;99.90;;;;;;5095703;28;20532;-64
2022/06/06 00:07:17;;;;;;;17.63;16.20;;;23.30;99.90;;;;;;5115179;28;20445;-64
2022/06/06 00:09:44;;;;;;;18.07;16.53;;;23.30;99.90;;;;;;5114760;28;20491;-64
2022/06/06 00:12:11;;;;;;;18.47;16.77;;;23.30;99.90;;;;;;5114863;28;21015;-64
2022/06/06 00:14:39;;;;;;;17.27;15.97;;;23.20;99.90;;;;;;5114976;28;21016;-64
2022/06/06 00:17:06;;;;;;;17.70;16.40;;;23.20;99.90;;;;;;5112560;28;20442;-63
2022/06/06 00:19:33;;;;;;;16.60;15.40;;;23.20;99.90;;;;;;5094319;28;20489;-64
2022/06/06 00:22:00;;;;;;;17.83;16.27;;;23.20;99.90;;;;;;5094214;28;20486;-63
2022/06/06 00:24:27;;;;;;;15.10;14.07;;;23.20;99.90;;;;;;5094393;28;20529;-64
2022/06/06 00:26:54;;;;;;;17.00;15.70;;;23.20;99.90;;;;;;5094497;28;21023;-64
2022/06/06 00:29:22;;;;;;;17.90;16.50;;;23.20;99.90;;;;;;5099579;28;20541;-63
2022/06/06 00:37:18;;;;;;;16.23;14.93;;;23.10;99.90;;;;;;5112633;28;20434;-64
2022/06/06 00:39:46;;;;;;;16.87;15.60;;;23.10;99.90;;;;;;5114371;28;20525;-62
2022/06/06 00:42:18;;;;;;;16.37;14.93;;;23.10;99.90;;;;;;5100775;28;20489;-64
2022/06/06 00:44:46;;;;;;;15.87;14.67;;;23.10;99.90;;;;;;5094151;28;20541;-63
2022/06/06 00:47:24;;;;;;;15.20;14.00;;;23.00;99.90;;;;;;5093978;28;20538;-64
2022/06/06 00:49:55;;;;;;;14.73;13.57;;;23.00;99.90;;;;;;5100858;28;20452;-64
2022/06/06 00:52:25;;;;;;;16.57;15.37;;;23.00;99.90;;;;;;5114208;28;20959;-63
2022/06/06 00:54:56;;;;;;;17.23;15.73;;;23.00;99.90;;;;;;5114269;28;20446;-62
2022/06/06 00:57:28;;;;;;;15.50;14.40;;;23.00;99.90;;;;;;5114151;28;20445;-63
2022/06/06 00:59:55;;;;;;;13.97;12.97;;;22.90;99.90;;;;;;5106196;28;20538;-63
2022/06/06 01:02:24;;;;;;;17.07;15.70;;;23.00;99.90;;;;;;5093466;28;20565;-62
2022/06/06 01:04:52;;;;;;;16.23;14.93;;;23.00;99.90;;;;;;5093660;28;20546;-64
2022/06/06 01:07:20;;;;;;;15.67;14.43;;;22.90;99.90;;;;;;5093560;28;20533;-60
2022/06/06 01:09:47;;;;;;;17.00;15.67;;;22.90;99.90;;;;;;5093214;28;20549;-64
2022/06/06 01:12:17;;;;;;;16.20;14.93;;;22.90;99.90;;;;;;5102460;28;20461;-63
2022/06/06 01:14:48;;;;;;;15.13;13.93;;;22.90;99.90;;;;;;5113900;28;20500;-64
2022/06/06 01:17:27;;;;;;;17.20;15.90;;;22.90;99.90;;;;;;5113693;28;20532;-64
2022/06/06 01:20:15;;;;;;;15.03;13.83;;;22.90;99.90;;;;;;5113487;28;20449;-64
2022/06/06 01:23:08;;;;;;;15.57;14.37;;;22.90;99.90;;;;;;5113517;28;20564;-64
2022/06/06 01:26:04;;;;;;;15.43;14.33;;;22.90;99.90;;;;;;5093273;28;20469;-64
2022/06/06 01:28:50;;;;;;;15.73;14.43;;;22.90;99.90;;;;;;5093130;28;20485;-64
2022/06/06 01:31:21;;;;;;;14.90;13.80;;;22.80;99.90;;;;;;5092765;28;20989;-64
2022/06/06 01:33:52;;;;;;;15.20;14.00;;;22.80;99.90;;;;;;5094209;28;20817;-64
2022/06/06 01:36:20;;;;;;;15.47;14.27;;;22.80;99.90;;;;;;5094007;28;20871;-64
2022/06/06 01:38:48;;;;;;;15.23;14.03;;;22.80;99.90;;;;;;5109853;28;20879;-64
2022/06/06 01:41:23;;;;;;;15.90;14.17;;;22.80;99.90;;;;;;5112946;28;20552;-63
2022/06/06 01:43:56;;;;;;;17.40;16.20;;;22.80;99.90;;;;;;5108662;28;20529;-64
2022/06/06 01:46:28;;;;;;;16.93;15.33;;;22.80;99.90;;;;;;5092763;28;20510;-64
2022/06/06 01:48:56;;;;;;;15.37;14.37;;;22.80;99.90;;;;;;5093020;28;20450;-64
2022/06/06 01:51:30;;;;;;;16.80;15.30;;;22.70;99.90;;;;;;5092477;28;20519;-64
2022/06/06 01:53:57;;;;;;;14.10;13.00;;;22.70;99.90;;;;;;5092649;28;20439;-64
2022/06/06 01:56:27;;;;;;;14.60;13.60;;;22.80;99.90;;;;;;5100639;28;20887;-64
2022/06/06 01:58:56;;;;;;;15.70;14.60;;;22.80;99.90;;;;;;5112959;28;20455;-63
2022/06/06 02:01:23;;;;;;;15.63;14.33;;;22.80;99.90;;;;;;5112471;28;20553;-63
2022/06/06 02:03:50;;;;;;;14.80;13.60;;;22.70;99.90;;;;;;5112184;28;20450;-64
2022/06/06 02:06:17;;;;;;;14.93;13.73;;;22.70;99.90;;;;;;5092385;28;20529;-62
2022/06/06 02:08:44;;;;;;;14.97;13.87;;;22.70;99.90;;;;;;5092212;28;20972;-63
2022/06/06 02:11:11;;;;;;;14.17;13.10;;;22.70;99.90;;;;;;5092130;28;20562;-64
2022/06/06 02:13:39;;;;;;;13.53;12.40;;;22.70;99.90;;;;;;5092281;28;20884;-64
2022/06/06 02:16:07;;;;;;;12.87;11.77;;;22.60;99.90;;;;;;5111370;28;20984;-64
2022/06/06 02:18:34;;;;;;;13.10;12.20;;;22.70;99.90;;;;;;5112604;28;20524;-64
2022/06/06 02:21:02;;;;;;;14.27;13.27;;;22.70;99.90;;;;;;5112196;28;20493;-62
2022/06/06 02:23:29;;;;;;;13.23;12.20;;;22.70;99.90;;;;;;5112455;28;20552;-64
2022/06/06 02:25:56;;;;;;;12.83;11.97;;;22.60;99.90;;;;;;5109971;28;20437;-64
2022/06/06 02:28:24;;;;;;;12.90;12.00;;;22.60;99.90;;;;;;5092048;28;20457;-63
2022/06/06 02:30:51;;;;;;;12.93;11.73;;;22.50;99.90;;;;;;5091744;28;20909;-63
2022/06/06 02:33:19;;;;;;;12.83;11.80;;;22.50;99.90;;;;;;5091893;28;20869;-64
2022/06/06 02:35:46;;;;;;;12.03;11.17;;;22.50;99.90;;;;;;5092004;28;20469;-64
2022/06/06 02:38:14;;;;;;;12.93;11.93;;;22.50;99.90;;;;;;5096436;28;20979;-63
2022/06/06 02:40:44;;;;;;;12.57;11.60;;;22.50;99.90;;;;;;5111980;28;20545;-64
2022/06/06 02:43:11;;;;;;;11.20;10.70;;;22.50;99.90;;;;;;5112152;28;20568;-64
2022/06/06 02:45:39;;;;;;;11.50;10.70;;;22.50;99.90;;;;;;5112117;28;20533;-64
2022/06/06 02:48:08;;;;;;;12.33;11.40;;;22.50;99.90;;;;;;5112246;28;20449;-63
2022/06/06 02:50:37;;;;;;;11.63;10.63;;;22.50;99.90;;;;;;5104837;28;20466;-64
2022/06/06 02:53:05;;;;;;;10.43;9.77;;;22.50;99.90;;;;;;5096658;28;20438;-64
2022/06/06 02:55:33;;;;;;;10.97;10.27;;;22.50;99.90;;;;;;5111964;28;20445;-64
2022/06/06 02:58:01;;;;;;;11.17;10.50;;;22.40;99.90;;;;;;5112241;28;20527;-63
2022/06/06 03:00:29;;;;;;;10.40;9.80;;;22.50;99.90;;;;;;5111788;28;20469;-64
2022/06/06 03:02:56;;;;;;;11.37;10.37;;;22.40;99.90;;;;;;5101102;28;20474;-63
2022/06/06 03:05:28;;;;;;;9.77;9.20;;;22.40;99.90;;;;;;5091686;28;20529;-63
2022/06/06 03:08:16;;;;;;;8.77;8.37;;;22.40;99.90;;;;;;5091555;28;20550;-63
2022/06/06 03:10:56;;;;;;;9.83;9.13;;;22.40;99.90;;;;;;5091159;28;20566;-63
2022/06/06 03:13:36;;;;;;;9.63;9.03;;;22.30;99.90;;;;;;5091468;28;20430;-63
2022/06/06 03:22:14;;;;;;;9.60;9.00;;;22.20;99.90;;;;;;5071330;28;20507;-65
2022/06/06 03:24:55;;;;;;;9.37;8.87;;;22.30;99.90;;;;;;5071122;28;20847;-65
2022/06/06 03:27:33;;;;;;;8.93;8.43;;;22.20;99.90;;;;;;5055341;28;20535;-64
2022/06/06 03:30:06;;;;;;;8.90;8.30;;;22.20;99.90;;;;;;5050978;28;20788;-65
2022/06/06 03:32:45;;;;;;;11.53;10.70;;;22.20;99.90;;;;;;5051119;28;20443;-64
2022/06/06 03:35:22;;;;;;;8.73;8.33;;;22.20;99.90;;;;;;5051046;28;21048;-64
2022/06/06 03:37:58;;;;;;;9.00;8.33;;;22.20;99.90;;;;;;5049190;28;20497;-65
2022/06/06 03:40:35;;;;;;;9.50;9.10;;;22.20;99.90;;;;;;5031035;28;20452;-65
2022/06/06 03:43:12;;;;;;;8.43;8.00;;;22.20;99.90;;;;;;5030907;28;20494;-64
2022/06/06 03:45:44;;;;;;;9.03;8.63;;;22.10;99.90;;;;;;5030868;28;20519;-64
2022/06/06 03:48:27;;;;;;;9.60;9.10;;;22.10;99.90;;;;;;5030985;28;20453;-64
2022/06/06 03:51:07;;;;;;;8.63;8.23;;;22.10;99.90;;;;;;5038682;28;20562;-64
2022/06/06 03:53:45;;;;;;;8.53;8.13;;;22.10;99.90;;;;;;5051090;28;20551;-64
2022/06/06 03:56:32;;;;;;;8.80;8.30;;;22.20;99.90;;;;;;5050878;28;20868;-66
2022/06/06 03:59:00;;;;;;;8.17;7.70;;;22.10;99.90;;;;;;5049029;28;20531;-68
2022/06/06 04:01:28;;;;;;;7.80;7.50;;;22.20;99.90;;;;;;5048387;28;20475;-67
2022/06/06 04:03:58;;;;;;;9.53;9.13;;;22.20;99.90;;;;;;5041408;28;20479;-67
2022/06/06 04:06:28;;;;;;;9.07;8.57;;;22.20;99.90;;;;;;5034909;28;21004;-69
2022/06/06 04:08:55;;;;;;;9.43;8.63;;;22.20;99.90;;;;;;5034656;28;20456;-68
2022/06/06 04:11:39;;;;;;;9.07;8.60;;;22.20;99.90;;;;;;5034240;28;20552;-67
2022/06/06 04:14:15;;;;;;;10.10;9.50;;;22.20;99.90;;;;;;5045617;28;20476;-67
2022/06/06 04:16:52;;;;;;;10.13;9.53;;;22.20;99.90;;;;;;5054254;28;20462;-69
2022/06/06 04:19:29;;;;;;;9.20;8.70;;;22.20;99.90;;;;;;5054303;28;20531;-65
2022/06/06 04:22:10;;;;;;;9.23;8.80;;;22.20;99.90;;;;;;5054299;28;20448;-65
2022/06/06 04:24:53;;;;;;;10.33;9.63;;;22.20;99.90;;;;;;5054109;28;20463;-64
2022/06/06 04:27:29;;;;;;;9.10;8.60;;;22.20;99.90;;;;;;5036893;28;20449;-66
2022/06/06 04:30:02;;;;;;;10.17;9.53;;;22.20;99.90;;;;;;5050523;28;20966;-66
2022/06/06 04:32:47;;;;;;;10.60;10.07;;;22.20;99.90;;;;;;5053987;28;20877;-66
2022/06/06 04:35:29;;;;;;;10.40;9.80;;;22.20;99.90;;;;;;5053908;28;20468;-65
2022/06/06 04:38:05;;;;;;;9.10;8.70;;;22.20;99.90;;;;;;5042713;28;20453;-66
2022/06/06 04:40:38;;;;;;;10.27;9.73;;;22.30;99.90;;;;;;5033764;28;21427;-65
2022/06/06 04:43:14;;;;;;;10.43;9.73;;;22.20;99.90;;;;;;5033755;28;20572;-66
2022/06/06 04:45:47;;;;;;;9.57;9.07;;;22.20;99.90;;;;;;5033843;28;20555;-67
2022/06/06 04:48:15;;;;;;;10.20;9.70;;;22.20;99.90;;;;;;5033862;28;20452;-66
2022/06/06 04:50:44;;;;;;;10.07;9.67;;;22.20;99.90;;;;;;5035720;28;20445;-67
2022/06/06 04:53:14;;;;;;;10.00;9.40;;;22.20;99.90;;;;;;5038666;28;20523;-66
2022/06/06 04:55:43;;;;;;;10.83;10.23;;;22.20;99.90;;;;;;5053468;28;20647;-65
2022/06/06 04:58:13;;;;;;;10.60;9.97;;;22.20;99.90;;;;;;5053530;28;20448;-66
2022/06/06 05:00:40;;;;;;;9.67;9.27;;;22.20;99.90;;;;;;5053377;28;20447;-67
2022/06/06 05:03:07;;;;;;;10.37;9.67;;;22.20;99.90;;;;;;5035087;28;20477;-67
2022/06/06 05:05:44;;;;;;;10.43;9.93;;;22.20;99.90;;;;;;5034502;28;21040;-67
2022/06/06 05:08:26;;;;;;;11.10;10.50;;;22.30;99.90;;;;;;5034986;28;21019;-68
2022/06/06 05:11:19;;;;;;;11.23;10.53;;;22.20;99.90;;;;;;5033818;28;20982;-68
2022/06/06 05:14:03;;;;;;;10.23;9.73;;;22.20;99.90;;;;;;5036885;28;20535;-68
2022/06/06 05:16:58;;;;;;;11.23;10.43;;;22.10;99.90;;;;;;5051062;28;20478;-68
2022/06/06 05:19:52;;;;;;;10.80;10.30;;;22.20;99.90;;;;;;5031320;28;20964;-68
2022/06/06 05:22:40;;;;;;;10.97;10.27;;;22.20;99.90;;;;;;5033387;28;20476;-67
2022/06/06 05:25:15;;;;;;;10.97;10.47;;;22.20;99.90;;;;;;5037226;28;20503;-67
2022/06/06 05:28:03;;;;;;;10.03;9.53;;;22.20;99.90;;;;;;5053053;28;20440;-66
2022/06/06 05:30:38;;;;;;;9.83;9.43;;;22.10;99.90;;;;;;5052834;28;20535;-68
2022/06/06 05:33:11;;;;;;;10.67;10.10;;;22.20;99.90;;;;;;5053180;28;20439;-67
2022/06/06 05:36:09;;;;;;;10.90;10.40;;;22.20;99.90;;;;;;5044136;28;20511;-68
2022/06/06 05:38:50;;;;;;;9.70;9.20;;;22.10;99.90;;;;;;5033033;28;20463;-68
2022/06/06 05:41:26;;;;;;;10.87;10.30;;;22.10;99.90;;;;;;5032571;28;21008;-68
2022/06/06 05:44:03;;;;;;;11.30;10.63;;;22.20;99.90;;;;;;5032821;28;21010;-68
2022/06/06 05:46:42;;;;;;;10.03;9.63;;;22.20;99.80;;;;;;5032821;28;20548;-67
2022/06/06 05:49:23;;;;;;;10.43;9.93;;;22.20;99.70;;;;;;5051445;28;20530;-68
2022/06/06 05:52:00;;;;;;;9.90;9.37;;;22.20;99.80;;;;;;5052316;28;20959;-66
2022/06/06 05:54:42;;;;;;;10.50;10.00;;;22.20;99.70;;;;;;5052339;28;20861;-65
2022/06/06 05:57:29;;;;;;;10.93;10.43;;;22.20;99.30;;;;;;5052465;28;20476;-68
2022/06/06 06:00:21;;;;;;;28.33;27.13;;;22.10;99.00;;;;;;5043356;28;20528;-67
2022/06/06 06:03:27;;;;;;;34.33;33.00;;;22.20;99.30;;;;;;5032545;28;20209;-68
2022/06/06 06:05:59;;;;;;;34.43;33.13;;;22.30;99.10;;;;;;5032387;28;20997;-65
2022/06/06 06:08:58;;;;;;;32.67;31.43;;;22.30;98.40;;;;;;5043317;28;20494;-65
2022/06/06 06:11:39;;;;;;;34.10;32.70;;;22.30;98.30;;;;;;5051961;28;20455;-65
2022/06/06 06:14:19;;;;;;;34.47;33.20;;;22.30;97.80;;;;;;5052195;28;20487;-68
2022/06/06 06:16:51;;;;;;;33.20;31.70;;;22.30;98.00;;;;;;5051872;28;20519;-67
2022/06/06 06:19:24;;;;;;;28.50;27.37;;;22.40;98.00;;;;;;5033552;28;20552;-68
2022/06/06 06:21:55;;;;;;;31.67;30.50;;;22.30;97.20;;;;;;5032082;28;20799;-67
2022/06/06 06:24:28;;;;;;;32.10;30.90;;;22.30;97.00;;;;;;5031807;28;20576;-67
2022/06/06 06:26:57;;;;;;;33.20;32.00;;;22.30;97.10;;;;;;5031972;28;20477;-67
2022/06/06 06:29:24;;;;;;;34.60;33.30;;;22.30;96.90;;;;;;5035275;28;20458;-66
2022/06/06 06:32:12;;;;;;;34.77;33.50;;;22.20;98.00;;;;;;5051730;28;20484;-66
2022/06/06 06:34:56;;;;;;;29.98;28.88;;;22.20;98.20;;;;;;5051347;28;20436;-65
2022/06/06 06:37:47;;;;;;;30.03;28.90;;;22.30;99.00;;;;;;5051635;28;20288;-65
2022/06/06 06:40:23;;;;;;;32.23;31.10;;;22.30;98.70;;;;;;5048450;28;20538;-65
2022/06/06 06:43:11;;;;;;;29.47;28.20;;;22.30;98.20;;;;;;5033174;28;20975;-65
2022/06/06 06:45:42;;;;;;;32.93;31.63;;;22.30;98.50;;;;;;5031666;28;20479;-63
2022/06/06 06:48:12;;;;;;;28.30;27.30;;;22.30;98.60;;;;;;5031690;28;20767;-65
2022/06/06 06:50:49;;;;;;;28.70;27.70;;;22.30;98.50;;;;;;5031516;28;20495;-65
2022/06/06 06:53:40;;;;;;;29.40;28.30;;;22.30;98.90;;;;;;5037581;28;20459;-65
2022/06/06 06:56:16;;;;;;;27.97;26.87;;;22.30;98.50;;;;;;5051384;28;20491;-66
2022/06/06 06:58:53;;;;;;;27.97;26.70;;;22.30;98.50;;;;;;5051498;28;20452;-65
2022/06/06 07:01:27;;;;;;;28.30;27.30;;;22.30;97.90;;;;;;5051282;28;20444;-66
2022/06/06 07:10:08;;;;;;;30.33;29.10;;;22.40;97.90;;;;;;4992885;28;20435;-64
2022/06/06 07:12:49;;;;;;;30.03;28.93;;;22.30;96.50;;;;;;5032177;28;20445;-64
2022/06/06 07:15:27;;;;;;;29.80;28.60;;;22.30;95.90;;;;;;5031140;28;20472;-66
2022/06/06 07:18:00;;;;;;;25.50;24.60;;;22.30;96.80;;;;;;5039835;28;20468;-67
2022/06/06 07:20:28;;;;;;;30.30;29.20;;;22.40;95.70;;;;;;5051161;28;20284;-67
2022/06/06 07:23:03;;;;;;;30.70;29.70;;;22.40;94.40;;;;;;5051131;28;20881;-67
2022/06/06 07:25:36;;;;;;;30.70;29.70;;;22.50;93.70;;;;;;5051147;28;21044;-67
2022/06/06 07:28:04;;;;;;;30.40;29.30;;;22.40;92.60;;;;;;5051295;28;20823;-67
2022/06/06 07:30:35;;;;;;;29.60;28.50;;;22.50;92.90;;;;;;5038565;28;20455;-66
2022/06/06 07:33:15;;;;;;;29.70;28.70;;;22.50;92.70;;;;;;5031371;28;20523;-68
2022/06/06 07:35:50;;;;;;;30.23;29.23;;;22.50;91.80;;;;;;5031153;28;20555;-66
2022/06/06 07:38:31;;;;;;;30.20;29.17;;;22.50;91.70;;;;;;5031215;28;20447;-66
2022/06/06 07:41:13;;;;;;;29.93;28.93;;;22.50;91.30;;;;;;5031866;28;20453;-67
2022/06/06 07:43:54;;;;;;;31.43;30.23;;;22.50;91.20;;;;;;5054956;28;21002;-65
2022/06/06 07:46:38;;;;;;;28.73;27.83;;;22.50;91.30;;;;;;5054727;28;20554;-66
2022/06/06 07:49:09;;;;;;;27.60;26.60;;;22.40;91.10;;;;;;5054885;28;20939;-66
2022/06/06 07:51:44;;;;;;;29.40;28.40;;;22.40;90.80;;;;;;5054574;28;20540;-67
2022/06/06 07:54:24;;;;;;;28.90;28.00;;;22.40;90.20;;;;;;5041918;28;20442;-65
2022/06/06 07:56:58;;;;;;;28.73;27.73;;;22.40;90.60;;;;;;5034917;28;20812;-67
2022/06/06 07:59:43;;;;;;;26.83;26.03;;;22.50;90.10;;;;;;5034607;28;20801;-68
2022/06/06 08:02:27;;;;;;;29.30;28.30;;;22.50;87.00;;;;;;5034593;28;20539;-67
2022/06/06 08:05:13;;;;;;;28.47;27.57;;;22.50;85.40;;;;;;5036146;28;20489;-67
2022/06/06 08:07:45;;;;;;;28.00;27.10;;;22.60;83.60;;;;;;5054467;28;20557;-67
2022/06/06 08:10:27;;;;;;;28.23;27.33;;;22.60;83.70;;;;;;5054369;28;20619;-66
2022/06/06 08:13:06;;;;;;;29.60;28.53;;;22.50;83.20;;;;;;5054443;28;20451;-66
2022/06/06 08:15:47;;;;;;;28.67;27.77;;;22.50;83.80;;;;;;5034302;28;20473;-66
2022/06/06 08:18:36;;;;;;;27.83;26.93;;;22.50;83.50;;;;;;5034380;28;20456;-66
2022/06/06 08:21:10;;;;;;;28.53;27.63;;;22.50;83.70;;;;;;5034132;28;20436;-66
2022/06/06 08:23:38;;;;;;;28.43;27.53;;;22.50;83.90;;;;;;5033904;28;20515;-66
2022/06/06 08:26:08;;;;;;;28.30;27.40;;;22.50;83.60;;;;;;5034046;28;20457;-66
2022/06/06 08:28:40;;;;;;;29.60;28.60;;;22.40;82.50;;;;;;5034192;28;20536;-66
2022/06/06 08:31:08;;;;;;;28.30;27.30;;;22.40;84.20;;;;;;5033876;28;20503;-65
2022/06/06 08:33:35;;;;;;;29.23;28.23;;;22.40;86.30;;;;;;5034086;28;20798;-66
2022/06/06 08:36:17;;;;;;;28.30;27.20;;;22.40;86.10;;;;;;5033331;28;20544;-65
2022/06/06 08:38:56;;;;;;;28.00;27.00;;;22.40;87.90;;;;;;5033804;28;20877;-65
2022/06/06 08:41:58;;;;;;;29.33;28.33;;;22.40;87.30;;;;;;5033642;28;20875;-68
2022/06/06 08:44:29;;;;;;;27.50;26.60;;;22.40;86.70;;;;;;5033193;28;20480;-68
2022/06/06 08:47:06;;;;;;;28.77;27.77;;;22.50;86.30;;;;;;5033831;28;20463;-67
2022/06/06 08:53:12;;;;;;;28.23;27.20;;;22.50;84.30;;;;;;5033030;28;20576;-68
2022/06/06 08:56:08;;;;;;;27.00;26.03;;;22.50;84.10;;;;;;5033405;28;20297;-68
2022/06/06 08:59:04;;;;;;;27.10;26.30;;;22.50;82.40;;;;;;4999769;28;20971;-68
2022/06/06 09:01:48;;;;;;;28.83;27.83;;;22.50;81.30;;;;;;5033373;28;20468;-68
2022/06/06 09:04:49;;;;;;;27.33;26.43;;;22.40;82.00;;;;;;5032916;28;21062;-68
2022/06/06 09:07:44;;;;;;;27.70;26.80;;;22.40;82.80;;;;;;5001332;28;20457;-68
2022/06/06 09:10:48;;;;;;;27.30;26.40;;;22.40;82.70;;;;;;5033319;28;20477;-68
2022/06/06 09:13:48;;;;;;;27.80;26.80;;;22.40;82.40;;;;;;5033376;28;20467;-68
2022/06/06 09:16:41;;;;;;;27.43;26.53;;;22.40;81.90;;;;;;5090929;22;21087;-66
2022/06/06 09:19:41;;;;;;;27.73;26.63;;;22.40;80.70;;;;;;5110962;28;20448;-66
2022/06/06 09:22:27;;;;;;;26.97;26.07;;;22.40;81.60;;;;;;5113737;28;20489;-66
2022/06/06 09:25:26;;;;;;;27.20;26.30;;;22.40;80.00;;;;;;5093440;28;20830;-66
2022/06/06 09:28:34;;;;;;;27.37;26.47;;;22.40;80.50;;;;;;5073064;28;20443;-66
2022/06/06 09:31:43;;;;;;;27.60;26.70;;;22.40;79.60;;;;;;5073163;28;20439;-66
2022/06/06 09:34:52;;;;;;;27.47;26.60;;;22.50;79.20;;;;;;5065472;28;20527;-65
2022/06/06 09:37:34;;;;;;;27.90;27.00;;;22.50;78.80;;;;;;5073085;28;20535;-66
2022/06/06 09:40:19;;;;;;;28.53;27.47;;;22.50;75.90;;;;;;5072613;28;20497;-66
2022/06/06 09:43:09;;;;;;;28.17;27.17;;;22.50;75.90;;;;;;5072734;28;20934;-66
2022/06/06 09:45:50;;;;;;;27.47;26.67;;;22.50;76.40;;;;;;5072574;28;20487;-66
2022/06/06 09:48:46;;;;;;;28.03;27.13;;;22.50;76.30;;;;;;5072783;28;20937;-66
2022/06/06 09:51:43;;;;;;;27.57;26.77;;;22.50;75.40;;;;;;5072637;28;20489;-65
2022/06/06 10:00:44;;;;;;;28.43;27.53;;;22.60;75.50;;;;;;5048961;28;20442;-65
2022/06/06 10:03:50;;;;;;;27.17;26.37;;;22.60;75.30;;;;;;5074143;28;20477;-64
2022/06/06 10:06:36;;;;;;;30.97;29.97;;;22.60;76.00;;;;;;5072371;28;20551;-66
2022/06/06 10:09:38;;;;;;;29.40;28.50;;;22.60;76.40;;;;;;5072283;28;20521;-66
2022/06/06 10:12:33;;;;;;;28.37;27.37;;;22.50;74.20;;;;;;5072437;28;20525;-66
2022/06/06 10:15:37;;;;;;;27.90;27.00;;;22.60;74.30;;;;;;5072034;28;20903;-65
2022/06/06 10:18:44;;;;;;;28.70;27.60;;;22.60;74.30;;;;;;5072034;28;20942;-65
2022/06/06 10:21:46;;;;;;;30.07;29.07;;;22.60;74.60;;;;;;5006511;28;20531;-64
2022/06/06 10:24:30;;;;;;;27.50;26.63;;;22.60;75.20;;;;;;5068307;28;20482;-65
2022/06/06 10:27:09;;;;;;;24.55;23.80;;;22.60;75.00;;;;;;5051653;28;20437;-67
2022/06/06 10:30:12;;;;;;;28.73;27.83;;;22.60;76.50;;;;;;5053665;28;20296;-66
2022/06/06 10:33:20;;;;;;;28.80;27.90;;;22.70;76.10;;;;;;5053227;28;20526;-66
2022/06/06 10:36:24;;;;;;;28.20;27.30;;;22.70;75.00;;;;;;5052793;28;20877;-65
2022/06/06 10:39:27;;;;;;;28.50;27.40;;;22.80;75.60;;;;;;5040098;28;20483;-66
2022/06/06 10:42:18;;;;;;;28.17;27.27;;;22.80;75.80;;;;;;5010502;28;20443;-64
2022/06/06 10:45:24;;;;;;;27.23;26.23;;;22.80;74.60;;;;;;5069516;28;20485;-65
2022/06/06 10:48:17;;;;;;;27.10;26.17;;;22.70;71.80;;;;;;5059490;28;20459;-66
2022/06/06 10:54:51;;;;;;;28.37;27.23;;;22.70;71.60;;;;;;5072012;28;20926;-64
2022/06/06 10:57:55;;;;;;;28.43;27.53;;;22.70;71.20;;;;;;5051700;28;20527;-64
2022/06/06 11:00:33;;;;;;;29.47;28.57;;;22.60;71.60;;;;;;5051261;28;20459;-63
2022/06/06 11:03:48;;;;;;;29.83;28.93;;;22.70;73.00;;;;;;5051419;28;20978;-64
2022/06/06 11:06:43;;;;;;;27.57;26.73;;;22.60;71.40;;;;;;4970507;28;20495;-64
2022/06/06 11:09:35;;;;;;;26.60;25.80;;;22.60;72.40;;;;;;4989561;28;20462;-64
2022/06/06 11:12:40;;;;;;;28.30;27.40;;;22.70;74.50;;;;;;5063963;28;20989;-65
2022/06/06 11:15:07;;;;;;;27.50;26.70;;;22.70;75.40;;;;;;5071580;28;20503;-64
2022/06/06 11:18:19;;;;;;;28.53;27.63;;;22.70;74.60;;;;;;5075579;28;20451;-64
2022/06/06 11:21:11;;;;;;;27.90;27.10;;;22.70;76.20;;;;;;5066422;28;20811;-66
2022/06/06 11:23:44;;;;;;;27.60;26.70;;;22.70;76.00;;;;;;5075394;28;20443;-64
2022/06/06 11:26:33;;;;;;;27.03;26.23;;;22.70;76.60;;;;;;5075275;28;20577;-65
2022/06/06 11:29:22;;;;;;;27.33;26.43;;;22.80;77.40;;;;;;5075231;28;20475;-65
2022/06/06 11:31:54;;;;;;;28.00;27.00;;;22.80;78.00;;;;;;5074849;28;20501;-64
2022/06/06 11:35:07;;;;;;;28.70;27.80;;;22.80;77.50;;;;;;5076215;28;20469;-65
2022/06/06 11:38:00;;;;;;;26.50;25.70;;;22.80;77.10;;;;;;5055913;28;20537;-65
2022/06/06 11:40:53;;;;;;;29.70;28.80;;;22.80;78.80;;;;;;5075368;28;20512;-68
2022/06/06 11:44:02;;;;;;;26.77;25.97;;;22.80;80.00;;;;;;5065667;28;20539;-65
2022/06/06 11:47:24;;;;;;;30.07;29.17;;;22.90;80.10;;;;;;5075126;28;20514;-64
2022/06/06 11:50:23;;;;;;;28.93;28.03;;;22.90;81.30;;;;;;4971541;28;20446;-67
2022/06/06 11:53:22;;;;;;;27.73;26.93;;;22.90;81.40;;;;;;5074529;28;20966;-66
2022/06/06 11:56:01;;;;;;;27.60;26.70;;;22.90;82.10;;;;;;5074668;28;20455;-66
2022/06/06 11:59:02;;;;;;;26.33;25.33;;;22.90;81.40;;;;;;5074791;28;20504;-65
2022/06/06 12:02:01;;;;;;;28.40;27.50;;;22.90;81.60;;;;;;5074412;28;20478;-67
2022/06/06 12:04:51;;;;;;;28.30;27.50;;;22.90;81.90;;;;;;5065768;28;20455;-66
2022/06/06 12:07:50;;;;;;;26.10;25.30;;;22.90;82.20;;;;;;5074621;28;20501;-66
2022/06/06 12:10:24;;;;;;;26.20;25.30;;;22.90;82.20;;;;;;5074440;28;20443;-69
2022/06/06 12:13:21;;;;;;;28.73;27.83;;;22.90;81.80;;;;;;5074438;28;20443;-68
2022/06/06 12:16:09;;;;;;;30.20;29.30;;;22.90;81.80;;;;;;5073880;28;20550;-67
2022/06/06 12:18:51;;;;;;;27.80;26.90;;;22.90;82.00;;;;;;5074388;28;20474;-67
2022/06/06 12:21:47;;;;;;;30.07;29.17;;;23.00;81.90;;;;;;5073925;28;20531;-67
2022/06/06 12:24:39;;;;;;;29.40;28.50;;;23.00;82.00;;;;;;5074316;28;20447;-68
2022/06/06 12:27:20;;;;;;;28.60;27.70;;;23.00;81.60;;;;;;5061959;28;20444;-67
2022/06/06 12:30:07;;;;;;;29.30;28.30;;;23.00;81.40;;;;;;5073957;28;20518;-66
2022/06/06 12:32:46;;;;;;;28.10;27.10;;;23.00;81.00;;;;;;5074018;28;20451;-66
2022/06/06 12:35:19;;;;;;;30.97;29.97;;;23.10;80.70;;;;;;5073914;28;20984;-66
2022/06/06 12:37:58;;;;;;;29.73;28.83;;;23.10;80.30;;;;;;5073887;28;20964;-64
2022/06/06 12:40:31;;;;;;;29.40;28.40;;;23.00;80.10;;;;;;5073493;28;20538;-65
2022/06/06 12:43:06;;;;;;;30.07;28.97;;;23.10;78.20;;;;;;5073973;28;20526;-64
2022/06/06 12:45:53;;;;;;;28.40;27.50;;;23.10;78.40;;;;;;5073688;28;20482;-65
2022/06/06 12:48:42;;;;;;;28.70;27.70;;;23.10;78.00;;;;;;5073370;28;20949;-65
2022/06/06 12:51:18;;;;;;;29.70;28.70;;;23.20;77.90;;;;;;5073265;28;20939;-66
2022/06/06 12:54:15;;;;;;;29.50;28.50;;;23.20;78.30;;;;;;5073560;28;20450;-66
2022/06/06 12:56:55;;;;;;;29.83;28.83;;;23.20;77.90;;;;;;5073327;28;20799;-65
2022/06/06 12:59:40;;;;;;;29.63;28.73;;;23.20;76.80;;;;;;5073293;28;20534;-65
2022/06/06 13:02:23;;;;;;;28.57;27.67;;;23.20;76.70;;;;;;5073408;28;20526;-66
2022/06/06 13:05:06;;;;;;;28.80;27.80;;;23.20;75.80;;;;;;5073215;28;20482;-67
2022/06/06 13:07:48;;;;;;;28.80;27.80;;;23.30;75.70;;;;;;5073272;28;20517;-66
2022/06/06 13:10:28;;;;;;;28.80;27.70;;;23.30;75.50;;;;;;5073349;28;20454;-67
2022/06/06 13:13:19;;;;;;;27.30;26.33;;;23.30;74.80;;;;;;5073136;28;20469;-67
2022/06/06 13:15:58;;;;;;;28.00;27.10;;;23.30;74.80;;;;;;5073425;28;20221;-64
2022/06/06 13:18:54;;;;;;;28.20;27.20;;;23.30;74.70;;;;;;5075242;28;20487;-63
2022/06/06 13:21:33;;;;;;;28.20;27.30;;;23.40;75.60;;;;;;5074922;28;20446;-65
2022/06/06 13:24:23;;;;;;;28.77;27.87;;;23.40;73.40;;;;;;5074706;28;20447;-68
2022/06/06 13:26:53;;;;;;;29.37;28.20;;;23.40;72.50;;;;;;5073665;28;20596;-66
2022/06/06 13:29:31;;;;;;;28.40;27.40;;;23.40;73.50;;;;;;5081367;28;20474;-63
2022/06/06 13:32:08;;;;;;;28.87;27.83;;;23.40;74.20;;;;;;5073237;28;20451;-65
2022/06/06 13:34:49;;;;;;;27.27;26.40;;;23.40;73.90;;;;;;5072912;28;20534;-64
2022/06/06 13:37:25;;;;;;;28.73;27.73;;;23.50;73.60;;;;;;5053025;28;20523;-64
2022/06/06 13:40:25;;;;;;;26.50;25.60;;;23.50;74.90;;;;;;5051649;28;20486;-65
2022/06/06 13:43:16;;;;;;;28.63;27.73;;;23.50;75.20;;;;;;5052791;28;20538;-65
2022/06/06 13:45:48;;;;;;;29.40;28.20;;;23.60;75.50;;;;;;5052348;28;20486;-64
2022/06/06 13:48:38;;;;;;;27.73;26.80;;;23.60;75.70;;;;;;5052763;28;20540;-65
2022/06/06 13:51:17;;;;;;;28.70;27.80;;;23.60;75.80;;;;;;5052596;28;20527;-64
2022/06/06 13:54:00;;;;;;;27.80;27.00;;;23.70;76.20;;;;;;5052677;28;20813;-64
2022/06/06 13:56:48;;;;;;;27.50;26.50;;;23.70;76.40;;;;;;5052450;28;20460;-64
2022/06/06 13:59:45;;;;;;;26.97;26.17;;;23.70;76.60;;;;;;5052403;28;20535;-64
2022/06/06 14:02:27;;;;;;;27.77;26.80;;;23.80;77.10;;;;;;5052504;28;20471;-63
2022/06/06 14:05:19;;;;;;;27.37;26.47;;;23.80;77.20;;;;;;5052256;28;21026;-64
2022/06/06 14:08:04;;;;;;;27.83;26.67;;;23.80;77.50;;;;;;5052325;28;20924;-64
2022/06/06 14:10:42;;;;;;;26.47;25.60;;;23.80;77.50;;;;;;5052130;28;20586;-64